sensor_id;sensor_type;location;lat;lon;timestamp;P1;durP1;ratioP1;P2;durP2;ratioP2
3099;SDS011;1560;52.746;13.474;2022-10-26T00:02:05;12.07;;;8.45;;
3099;SDS011;1560;52.746;13.474;2022-10-26T00:04:34;19.67;;;8.43;;
3099;SDS011;1560;52.746;13.474;2022-10-26T00:07:03;11.55;;;7.70;;
3099;SDS011;1560;52.746;13.474;2022-10-26T00:09:32;14.33;;;8.05;;
3099;SDS011;1560;52.746;13.474;2022-10-26T00:12:02;11.30;;;7.92;;
3099;SDS011;1560;52.746;13.474;2022-10-26T00:14:31;15.88;;;9.68;;
3099;SDS011;1560;52.746;13.474;2022-10-26T00:17:00;15.83;;;8.55;;
3099;SDS011;1560;52.746;13.474;2022-10-26T00:19:29;11.35;;;7.83;;
3099;SDS011;1560;52.746;13.474;2022-10-26T00:22:00;12.68;;;8.28;;
3099;SDS011;1560;52.746;13.474;2022-10-26T00:27:05;11.73;;;7.60;;
3099;SDS011;1560;52.746;13.474;2022-10-26T00:29:34;14.30;;;8.08;;
3099;SDS011;1560;52.746;13.474;2022-10-26T00:32:03;9.33;;;7.22;;
3099;SDS011;1560;52.746;13.474;2022-10-26T00:34:32;12.47;;;7.70;;
3099;SDS011;1560;52.746;13.474;2022-10-26T00:37:01;15.65;;;8.00;;
3099;SDS011;1560;52.746;13.474;2022-10-26T00:39:30;11.35;;;8.40;;
3099;SDS011;1560;52.746;13.474;2022-10-26T00:41:59;16.27;;;8.55;;
3099;SDS011;1560;52.746;13.474;2022-10-26T00:47:26;12.23;;;8.18;;
3099;SDS011;1560;52.746;13.474;2022-10-26T00:49:58;13.38;;;9.15;;
3099;SDS011;1560;52.746;13.474;2022-10-26T00:55:07;16.17;;;10.78;;
3099;SDS011;1560;52.746;13.474;2022-10-26T00:57:36;14.38;;;8.85;;
3099;SDS011;1560;52.746;13.474;2022-10-26T01:00:07;17.80;;;9.75;;
3099;SDS011;1560;52.746;13.474;2022-10-26T01:05:13;14.53;;;10.10;;
3099;SDS011;1560;52.746;13.474;2022-10-26T01:07:43;14.93;;;10.23;;
3099;SDS011;1560;52.746;13.474;2022-10-26T01:10:14;17.67;;;10.43;;
3099;SDS011;1560;52.746;13.474;2022-10-26T01:15:20;16.57;;;10.35;;
3099;SDS011;1560;52.746;13.474;2022-10-26T01:17:53;18.75;;;10.68;;
3099;SDS011;1560;52.746;13.474;2022-10-26T01:20:29;16.05;;;10.82;;
3099;SDS011;1560;52.746;13.474;2022-10-26T01:23:19;18.70;;;10.38;;
3099;SDS011;1560;52.746;13.474;2022-10-26T01:32:20;14.03;;;9.18;;
3099;SDS011;1560;52.746;13.474;2022-10-26T01:34:52;14.60;;;9.30;;
3099;SDS011;1560;52.746;13.474;2022-10-26T01:37:24;16.40;;;9.60;;
3099;SDS011;1560;52.746;13.474;2022-10-26T01:39:57;13.78;;;8.00;;
3099;SDS011;1560;52.746;13.474;2022-10-26T01:45:03;13.28;;;8.00;;
3099;SDS011;1560;52.746;13.474;2022-10-26T01:47:36;11.33;;;8.13;;
3099;SDS011;1560;52.746;13.474;2022-10-26T01:50:06;19.67;;;8.60;;
3099;SDS011;1560;52.746;13.474;2022-10-26T02:01:48;10.00;;;8.10;;
3099;SDS011;1560;52.746;13.474;2022-10-26T02:07:06;15.88;;;7.90;;
3099;SDS011;1560;52.746;13.474;2022-10-26T02:09:39;17.75;;;9.05;;
3099;SDS011;1560;52.746;13.474;2022-10-26T02:12:12;14.30;;;9.10;;
3099;SDS011;1560;52.746;13.474;2022-10-26T02:17:18;16.65;;;9.10;;
3099;SDS011;1560;52.746;13.474;2022-10-26T02:19:47;18.07;;;9.30;;
3099;SDS011;1560;52.746;13.474;2022-10-26T02:22:17;13.58;;;8.33;;
3099;SDS011;1560;52.746;13.474;2022-10-26T02:24:46;17.27;;;8.50;;
3099;SDS011;1560;52.746;13.474;2022-10-26T02:27:16;11.73;;;7.85;;
3099;SDS011;1560;52.746;13.474;2022-10-26T02:29:44;12.85;;;7.80;;
3099;SDS011;1560;52.746;13.474;2022-10-26T02:32:13;11.05;;;7.65;;
3099;SDS011;1560;52.746;13.474;2022-10-26T02:34:42;12.33;;;8.10;;
3099;SDS011;1560;52.746;13.474;2022-10-26T02:37:11;12.85;;;7.17;;
3099;SDS011;1560;52.746;13.474;2022-10-26T02:39:40;14.43;;;7.90;;
3099;SDS011;1560;52.746;13.474;2022-10-26T02:42:08;16.80;;;8.28;;
3099;SDS011;1560;52.746;13.474;2022-10-26T02:44:39;10.60;;;8.20;;
3099;SDS011;1560;52.746;13.474;2022-10-26T02:47:07;17.25;;;9.33;;
3099;SDS011;1560;52.746;13.474;2022-10-26T02:49:35;11.03;;;8.55;;
3099;SDS011;1560;52.746;13.474;2022-10-26T02:52:05;18.80;;;8.40;;
3099;SDS011;1560;52.746;13.474;2022-10-26T02:54:35;13.40;;;8.55;;
3099;SDS011;1560;52.746;13.474;2022-10-26T02:57:04;13.43;;;7.37;;
3099;SDS011;1560;52.746;13.474;2022-10-26T02:59:35;15.78;;;7.95;;
3099;SDS011;1560;52.746;13.474;2022-10-26T03:02:04;13.43;;;7.37;;
3099;SDS011;1560;52.746;13.474;2022-10-26T03:04:32;14.00;;;8.80;;
3099;SDS011;1560;52.746;13.474;2022-10-26T03:07:00;11.65;;;6.70;;
3099;SDS011;1560;52.746;13.474;2022-10-26T03:09:29;12.13;;;7.33;;
3099;SDS011;1560;52.746;13.474;2022-10-26T03:11:57;10.78;;;7.85;;
3099;SDS011;1560;52.746;13.474;2022-10-26T03:14:25;11.08;;;7.28;;
3099;SDS011;1560;52.746;13.474;2022-10-26T03:16:53;19.57;;;8.85;;
3099;SDS011;1560;52.746;13.474;2022-10-26T03:19:22;11.05;;;7.70;;
3099;SDS011;1560;52.746;13.474;2022-10-26T03:21:50;16.50;;;7.33;;
3099;SDS011;1560;52.746;13.474;2022-10-26T03:24:18;14.70;;;7.35;;
3099;SDS011;1560;52.746;13.474;2022-10-26T03:26:46;18.75;;;8.18;;
3099;SDS011;1560;52.746;13.474;2022-10-26T03:29:14;15.48;;;8.00;;
3099;SDS011;1560;52.746;13.474;2022-10-26T03:34:29;12.05;;;7.95;;
3099;SDS011;1560;52.746;13.474;2022-10-26T03:36:57;15.65;;;8.80;;
3099;SDS011;1560;52.746;13.474;2022-10-26T03:39:29;10.98;;;7.83;;
3099;SDS011;1560;52.746;13.474;2022-10-26T03:41:57;12.18;;;8.20;;
3099;SDS011;1560;52.746;13.474;2022-10-26T03:44:25;12.37;;;7.10;;
3099;SDS011;1560;52.746;13.474;2022-10-26T03:46:53;12.68;;;8.08;;
3099;SDS011;1560;52.746;13.474;2022-10-26T03:49:21;10.40;;;8.05;;
3099;SDS011;1560;52.746;13.474;2022-10-26T03:51:49;13.03;;;8.38;;
3099;SDS011;1560;52.746;13.474;2022-10-26T03:54:17;13.98;;;8.05;;
3099;SDS011;1560;52.746;13.474;2022-10-26T03:56:45;11.53;;;7.15;;
3099;SDS011;1560;52.746;13.474;2022-10-26T03:59:15;14.18;;;9.90;;
3099;SDS011;1560;52.746;13.474;2022-10-26T04:01:43;11.97;;;7.42;;
3099;SDS011;1560;52.746;13.474;2022-10-26T04:04:11;14.63;;;8.03;;
3099;SDS011;1560;52.746;13.474;2022-10-26T04:06:39;15.03;;;8.00;;
3099;SDS011;1560;52.746;13.474;2022-10-26T04:09:08;12.70;;;7.85;;
3099;SDS011;1560;52.746;13.474;2022-10-26T04:11:36;12.82;;;7.92;;
3099;SDS011;1560;52.746;13.474;2022-10-26T04:14:04;14.83;;;8.20;;
3099;SDS011;1560;52.746;13.474;2022-10-26T04:16:32;11.57;;;8.40;;
3099;SDS011;1560;52.746;13.474;2022-10-26T04:19:00;12.20;;;8.08;;
3099;SDS011;1560;52.746;13.474;2022-10-26T04:21:28;12.15;;;7.75;;
3099;SDS011;1560;52.746;13.474;2022-10-26T04:23:58;12.60;;;8.23;;
3099;SDS011;1560;52.746;13.474;2022-10-26T04:26:26;11.63;;;7.25;;
3099;SDS011;1560;52.746;13.474;2022-10-26T04:28:54;15.13;;;9.38;;
3099;SDS011;1560;52.746;13.474;2022-10-26T04:31:22;18.48;;;9.55;;
3099;SDS011;1560;52.746;13.474;2022-10-26T04:33:51;11.53;;;7.70;;
3099;SDS011;1560;52.746;13.474;2022-10-26T04:36:19;15.05;;;8.40;;
3099;SDS011;1560;52.746;13.474;2022-10-26T04:38:47;10.72;;;8.23;;
3099;SDS011;1560;52.746;13.474;2022-10-26T04:41:15;20.00;;;8.98;;
3099;SDS011;1560;52.746;13.474;2022-10-26T04:43:43;18.75;;;8.88;;
3099;SDS011;1560;52.746;13.474;2022-10-26T04:46:12;16.07;;;8.50;;
3099;SDS011;1560;52.746;13.474;2022-10-26T04:48:40;12.93;;;7.87;;
3099;SDS011;1560;52.746;13.474;2022-10-26T04:51:08;12.35;;;8.40;;
3099;SDS011;1560;52.746;13.474;2022-10-26T04:53:36;19.07;;;9.45;;
3099;SDS011;1560;52.746;13.474;2022-10-26T04:56:05;13.15;;;8.30;;
3099;SDS011;1560;52.746;13.474;2022-10-26T04:58:33;16.15;;;9.80;;
3099;SDS011;1560;52.746;13.474;2022-10-26T05:01:01;11.38;;;7.70;;
3099;SDS011;1560;52.746;13.474;2022-10-26T05:03:29;14.78;;;9.53;;
3099;SDS011;1560;52.746;13.474;2022-10-26T05:05:57;10.65;;;7.75;;
3099;SDS011;1560;52.746;13.474;2022-10-26T05:08:26;16.87;;;10.45;;
3099;SDS011;1560;52.746;13.474;2022-10-26T05:10:55;15.93;;;10.05;;
3099;SDS011;1560;52.746;13.474;2022-10-26T05:13:23;15.08;;;10.10;;
3099;SDS011;1560;52.746;13.474;2022-10-26T05:15:52;15.58;;;10.20;;
3099;SDS011;1560;52.746;13.474;2022-10-26T05:18:20;20.08;;;10.80;;
3099;SDS011;1560;52.746;13.474;2022-10-26T05:20:50;18.17;;;10.00;;
3099;SDS011;1560;52.746;13.474;2022-10-26T05:23:18;15.55;;;10.35;;
3099;SDS011;1560;52.746;13.474;2022-10-26T05:25:47;15.88;;;8.45;;
3099;SDS011;1560;52.746;13.474;2022-10-26T05:28:15;14.95;;;9.08;;
3099;SDS011;1560;52.746;13.474;2022-10-26T05:30:44;15.13;;;8.95;;
3099;SDS011;1560;52.746;13.474;2022-10-26T05:33:13;16.52;;;9.23;;
3099;SDS011;1560;52.746;13.474;2022-10-26T05:35:41;15.60;;;9.60;;
3099;SDS011;1560;52.746;13.474;2022-10-26T05:38:10;15.10;;;9.75;;
3099;SDS011;1560;52.746;13.474;2022-10-26T05:40:45;14.20;;;9.40;;
3099;SDS011;1560;52.746;13.474;2022-10-26T05:43:14;17.07;;;8.78;;
3099;SDS011;1560;52.746;13.474;2022-10-26T05:45:42;15.32;;;9.15;;
3099;SDS011;1560;52.746;13.474;2022-10-26T05:48:10;14.07;;;8.93;;
3099;SDS011;1560;52.746;13.474;2022-10-26T05:50:38;13.40;;;8.58;;
3099;SDS011;1560;52.746;13.474;2022-10-26T05:53:06;14.83;;;9.35;;
3099;SDS011;1560;52.746;13.474;2022-10-26T05:55:35;17.35;;;9.50;;
3099;SDS011;1560;52.746;13.474;2022-10-26T05:58:05;14.07;;;8.43;;
3099;SDS011;1560;52.746;13.474;2022-10-26T06:00:33;15.05;;;8.83;;
3099;SDS011;1560;52.746;13.474;2022-10-26T06:03:07;16.37;;;9.58;;
3099;SDS011;1560;52.746;13.474;2022-10-26T06:05:38;12.70;;;8.10;;
3099;SDS011;1560;52.746;13.474;2022-10-26T06:08:07;14.18;;;9.38;;
3099;SDS011;1560;52.746;13.474;2022-10-26T06:10:37;13.22;;;8.68;;
3099;SDS011;1560;52.746;13.474;2022-10-26T06:13:06;16.62;;;11.15;;
3099;SDS011;1560;52.746;13.474;2022-10-26T06:15:35;15.68;;;9.33;;
3099;SDS011;1560;52.746;13.474;2022-10-26T06:18:06;11.70;;;8.45;;
3099;SDS011;1560;52.746;13.474;2022-10-26T06:20:38;14.07;;;9.53;;
3099;SDS011;1560;52.746;13.474;2022-10-26T06:23:12;13.40;;;8.35;;
3099;SDS011;1560;52.746;13.474;2022-10-26T06:25:40;15.13;;;8.35;;
3099;SDS011;1560;52.746;13.474;2022-10-26T06:28:13;18.05;;;8.65;;
3099;SDS011;1560;52.746;13.474;2022-10-26T06:30:41;14.40;;;8.58;;
3099;SDS011;1560;52.746;13.474;2022-10-26T06:33:09;14.03;;;9.05;;
3099;SDS011;1560;52.746;13.474;2022-10-26T06:35:41;12.05;;;8.70;;
3099;SDS011;1560;52.746;13.474;2022-10-26T06:38:12;13.58;;;7.90;;
3099;SDS011;1560;52.746;13.474;2022-10-26T06:40:41;15.88;;;9.08;;
3099;SDS011;1560;52.746;13.474;2022-10-26T06:43:11;13.68;;;9.78;;
3099;SDS011;1560;52.746;13.474;2022-10-26T06:45:40;13.80;;;8.68;;
3099;SDS011;1560;52.746;13.474;2022-10-26T06:48:09;12.55;;;8.45;;
3099;SDS011;1560;52.746;13.474;2022-10-26T06:50:41;11.80;;;7.87;;
3099;SDS011;1560;52.746;13.474;2022-10-26T06:53:13;15.13;;;8.85;;
3099;SDS011;1560;52.746;13.474;2022-10-26T06:55:41;13.28;;;8.63;;
3099;SDS011;1560;52.746;13.474;2022-10-26T06:58:10;10.90;;;6.92;;
3099;SDS011;1560;52.746;13.474;2022-10-26T07:00:40;10.32;;;7.45;;
3099;SDS011;1560;52.746;13.474;2022-10-26T07:03:09;14.43;;;7.92;;
3099;SDS011;1560;52.746;13.474;2022-10-26T07:05:37;9.78;;;7.70;;
3099;SDS011;1560;52.746;13.474;2022-10-26T07:08:05;11.25;;;7.22;;
3099;SDS011;1560;52.746;13.474;2022-10-26T07:10:33;12.23;;;7.65;;
3099;SDS011;1560;52.746;13.474;2022-10-26T07:13:03;13.50;;;8.08;;
3099;SDS011;1560;52.746;13.474;2022-10-26T07:15:32;11.68;;;7.30;;
3099;SDS011;1560;52.746;13.474;2022-10-26T07:18:00;10.63;;;7.75;;
3099;SDS011;1560;52.746;13.474;2022-10-26T07:20:31;10.45;;;7.10;;
3099;SDS011;1560;52.746;13.474;2022-10-26T07:23:00;10.43;;;7.72;;
3099;SDS011;1560;52.746;13.474;2022-10-26T07:25:28;9.63;;;7.65;;
3099;SDS011;1560;52.746;13.474;2022-10-26T07:27:56;11.78;;;7.00;;
3099;SDS011;1560;52.746;13.474;2022-10-26T07:30:25;10.65;;;7.00;;
3099;SDS011;1560;52.746;13.474;2022-10-26T07:32:57;11.00;;;8.08;;
3099;SDS011;1560;52.746;13.474;2022-10-26T07:35:25;10.38;;;6.87;;
3099;SDS011;1560;52.746;13.474;2022-10-26T07:37:56;9.93;;;6.83;;
3099;SDS011;1560;52.746;13.474;2022-10-26T07:40:25;10.40;;;6.80;;
3099;SDS011;1560;52.746;13.474;2022-10-26T07:42:55;8.58;;;6.55;;
3099;SDS011;1560;52.746;13.474;2022-10-26T07:45:23;9.10;;;6.20;;
3099;SDS011;1560;52.746;13.474;2022-10-26T07:47:52;9.00;;;6.72;;
3099;SDS011;1560;52.746;13.474;2022-10-26T07:50:20;9.48;;;6.10;;
3099;SDS011;1560;52.746;13.474;2022-10-26T07:52:48;10.25;;;7.40;;
3099;SDS011;1560;52.746;13.474;2022-10-26T07:55:17;11.88;;;7.28;;
3099;SDS011;1560;52.746;13.474;2022-10-26T07:57:46;9.25;;;6.58;;
3099;SDS011;1560;52.746;13.474;2022-10-26T08:00:15;14.47;;;6.90;;
3099;SDS011;1560;52.746;13.474;2022-10-26T08:02:43;10.13;;;6.37;;
3099;SDS011;1560;52.746;13.474;2022-10-26T08:20:27;13.30;;;8.28;;
3099;SDS011;1560;52.746;13.474;2022-10-26T08:25:32;11.10;;;7.20;;
3099;SDS011;1560;52.746;13.474;2022-10-26T08:28:01;12.68;;;7.53;;
3099;SDS011;1560;52.746;13.474;2022-10-26T08:30:30;15.35;;;8.38;;
3099;SDS011;1560;52.746;13.474;2022-10-26T08:32:59;9.70;;;7.55;;
3099;SDS011;1560;52.746;13.474;2022-10-26T08:35:30;12.65;;;8.25;;
3099;SDS011;1560;52.746;13.474;2022-10-26T08:37:59;13.45;;;8.10;;
3099;SDS011;1560;52.746;13.474;2022-10-26T08:40:29;12.33;;;7.97;;
3099;SDS011;1560;52.746;13.474;2022-10-26T08:43:00;13.43;;;7.65;;
3099;SDS011;1560;52.746;13.474;2022-10-26T08:45:33;11.80;;;7.37;;
3099;SDS011;1560;52.746;13.474;2022-10-26T08:48:12;13.13;;;7.97;;
3099;SDS011;1560;52.746;13.474;2022-10-26T08:50:51;18.17;;;9.98;;
3099;SDS011;1560;52.746;13.474;2022-10-26T08:53:23;12.68;;;8.93;;
3099;SDS011;1560;52.746;13.474;2022-10-26T08:56:02;15.75;;;9.53;;
3099;SDS011;1560;52.746;13.474;2022-10-26T09:18:48;8.45;;;5.37;;
3099;SDS011;1560;52.746;13.474;2022-10-26T09:21:22;12.30;;;6.62;;
3099;SDS011;1560;52.746;13.474;2022-10-26T09:23:58;9.25;;;6.47;;
3099;SDS011;1560;52.746;13.474;2022-10-26T09:29:10;10.05;;;7.58;;
3099;SDS011;1560;52.746;13.474;2022-10-26T09:31:41;10.50;;;6.90;;
3099;SDS011;1560;52.746;13.474;2022-10-26T09:34:21;9.63;;;6.47;;
3099;SDS011;1560;52.746;13.474;2022-10-26T09:36:54;11.43;;;7.20;;
3099;SDS011;1560;52.746;13.474;2022-10-26T09:39:25;9.63;;;6.43;;
3099;SDS011;1560;52.746;13.474;2022-10-26T09:41:59;9.33;;;6.30;;
3099;SDS011;1560;52.746;13.474;2022-10-26T09:47:08;13.00;;;7.00;;
3099;SDS011;1560;52.746;13.474;2022-10-26T09:49:45;11.70;;;7.43;;
3099;SDS011;1560;52.746;13.474;2022-10-26T09:54:46;11.17;;;8.20;;
3099;SDS011;1560;52.746;13.474;2022-10-26T09:57:16;17.50;;;7.73;;
3099;SDS011;1560;52.746;13.474;2022-10-26T09:59:46;11.30;;;7.23;;
3099;SDS011;1560;52.746;13.474;2022-10-26T10:02:35;12.40;;;8.40;;
3099;SDS011;1560;52.746;13.474;2022-10-26T10:08:14;9.68;;;6.78;;
3099;SDS011;1560;52.746;13.474;2022-10-26T10:13:49;10.90;;;7.20;;
3099;SDS011;1560;52.746;13.474;2022-10-26T10:16:19;9.70;;;6.40;;
3099;SDS011;1560;52.746;13.474;2022-10-26T10:18:53;11.03;;;6.90;;
3099;SDS011;1560;52.746;13.474;2022-10-26T10:21:23;12.33;;;6.00;;
3099;SDS011;1560;52.746;13.474;2022-10-26T10:24:00;9.60;;;6.80;;
3099;SDS011;1560;52.746;13.474;2022-10-26T10:26:28;10.60;;;6.13;;
3099;SDS011;1560;52.746;13.474;2022-10-26T10:28:57;9.30;;;5.07;;
3099;SDS011;1560;52.746;13.474;2022-10-26T10:34:14;7.87;;;4.87;;
3099;SDS011;1560;52.746;13.474;2022-10-26T10:36:43;8.17;;;5.30;;
3099;SDS011;1560;52.746;13.474;2022-10-26T10:39:21;9.40;;;5.80;;
3099;SDS011;1560;52.746;13.474;2022-10-26T10:42:15;5.93;;;4.30;;
3099;SDS011;1560;52.746;13.474;2022-10-26T10:44:46;7.50;;;4.50;;
3099;SDS011;1560;52.746;13.474;2022-10-26T10:47:26;7.10;;;4.37;;
3099;SDS011;1560;52.746;13.474;2022-10-26T10:49:57;6.53;;;3.47;;
3099;SDS011;1560;52.746;13.474;2022-10-26T10:52:29;6.60;;;5.23;;
3099;SDS011;1560;52.746;13.474;2022-10-26T10:55:13;10.80;;;5.77;;
3099;SDS011;1560;52.746;13.474;2022-10-26T10:57:50;8.83;;;5.90;;
3099;SDS011;1560;52.746;13.474;2022-10-26T11:00:24;12.40;;;6.10;;
3099;SDS011;1560;52.746;13.474;2022-10-26T11:03:00;8.70;;;4.50;;
3099;SDS011;1560;52.746;13.474;2022-10-26T11:05:49;8.60;;;5.10;;
3099;SDS011;1560;52.746;13.474;2022-10-26T11:11:07;9.23;;;5.20;;
3099;SDS011;1560;52.746;13.474;2022-10-26T11:13:40;9.93;;;6.07;;
3099;SDS011;1560;52.746;13.474;2022-10-26T11:16:12;7.60;;;5.00;;
3099;SDS011;1560;52.746;13.474;2022-10-26T11:18:44;12.07;;;4.50;;
3099;SDS011;1560;52.746;13.474;2022-10-26T11:21:22;7.77;;;5.37;;
3099;SDS011;1560;52.746;13.474;2022-10-26T11:26:32;10.43;;;5.27;;
3099;SDS011;1560;52.746;13.474;2022-10-26T11:29:04;5.90;;;4.93;;
3099;SDS011;1560;52.746;13.474;2022-10-26T11:31:37;7.80;;;5.10;;
3099;SDS011;1560;52.746;13.474;2022-10-26T11:34:12;12.20;;;4.80;;
3099;SDS011;1560;52.746;13.474;2022-10-26T11:36:45;10.53;;;4.63;;
3099;SDS011;1560;52.746;13.474;2022-10-26T11:39:19;6.87;;;5.00;;
3099;SDS011;1560;52.746;13.474;2022-10-26T11:41:52;7.62;;;4.22;;
3099;SDS011;1560;52.746;13.474;2022-10-26T11:44:24;6.60;;;4.17;;
3099;SDS011;1560;52.746;13.474;2022-10-26T11:47:02;9.07;;;5.30;;
3099;SDS011;1560;52.746;13.474;2022-10-26T11:49:36;5.97;;;3.70;;
3099;SDS011;1560;52.746;13.474;2022-10-26T11:52:07;6.03;;;4.63;;
3099;SDS011;1560;52.746;13.474;2022-10-26T11:54:40;6.50;;;4.00;;
3099;SDS011;1560;52.746;13.474;2022-10-26T11:59:50;15.00;;;4.17;;
3099;SDS011;1560;52.746;13.474;2022-10-26T12:04:58;6.60;;;3.50;;
3099;SDS011;1560;52.746;13.474;2022-10-26T12:07:28;6.33;;;3.70;;
3099;SDS011;1560;52.746;13.474;2022-10-26T12:09:59;5.43;;;3.87;;
3099;SDS011;1560;52.746;13.474;2022-10-26T12:12:33;6.60;;;3.40;;
3099;SDS011;1560;52.746;13.474;2022-10-26T12:15:05;4.77;;;3.70;;
3099;SDS011;1560;52.746;13.474;2022-10-26T12:17:48;6.60;;;3.87;;
3099;SDS011;1560;52.746;13.474;2022-10-26T12:20:35;12.47;;;3.90;;
3099;SDS011;1560;52.746;13.474;2022-10-26T12:23:29;7.70;;;3.40;;
3099;SDS011;1560;52.746;13.474;2022-10-26T12:29:24;5.37;;;3.87;;
3099;SDS011;1560;52.746;13.474;2022-10-26T12:31:55;5.27;;;3.03;;
3099;SDS011;1560;52.746;13.474;2022-10-26T12:37:10;4.80;;;3.27;;
3099;SDS011;1560;52.746;13.474;2022-10-26T12:39:49;6.10;;;2.77;;
3099;SDS011;1560;52.746;13.474;2022-10-26T12:42:27;5.60;;;2.60;;
3099;SDS011;1560;52.746;13.474;2022-10-26T12:51:03;6.70;;;3.47;;
3099;SDS011;1560;52.746;13.474;2022-10-26T12:53:48;4.07;;;2.80;;
3099;SDS011;1560;52.746;13.474;2022-10-26T12:56:20;9.50;;;3.17;;
3099;SDS011;1560;52.746;13.474;2022-10-26T12:59:00;4.73;;;2.90;;
3099;SDS011;1560;52.746;13.474;2022-10-26T13:07:47;6.73;;;3.03;;
3099;SDS011;1560;52.746;13.474;2022-10-26T13:10:18;7.27;;;2.73;;
3099;SDS011;1560;52.746;13.474;2022-10-26T13:12:51;4.37;;;2.97;;
3099;SDS011;1560;52.746;13.474;2022-10-26T13:15:22;4.20;;;3.27;;
3099;SDS011;1560;52.746;13.474;2022-10-26T13:17:57;6.73;;;2.70;;
3099;SDS011;1560;52.746;13.474;2022-10-26T13:20:29;7.10;;;2.80;;
3099;SDS011;1560;52.746;13.474;2022-10-26T13:22:58;4.40;;;3.20;;
3099;SDS011;1560;52.746;13.474;2022-10-26T13:25:28;4.63;;;3.30;;
3099;SDS011;1560;52.746;13.474;2022-10-26T13:30:40;6.47;;;2.57;;
3099;SDS011;1560;52.746;13.474;2022-10-26T13:33:15;5.43;;;2.50;;
3099;SDS011;1560;52.746;13.474;2022-10-26T13:35:47;4.37;;;3.00;;
3099;SDS011;1560;52.746;13.474;2022-10-26T13:38:20;6.20;;;2.77;;
3099;SDS011;1560;52.746;13.474;2022-10-26T13:40:53;3.87;;;2.70;;
3099;SDS011;1560;52.746;13.474;2022-10-26T13:46:52;6.50;;;3.00;;
3099;SDS011;1560;52.746;13.474;2022-10-26T13:49:38;4.80;;;2.77;;
3099;SDS011;1560;52.746;13.474;2022-10-26T13:52:12;3.77;;;2.50;;
3099;SDS011;1560;52.746;13.474;2022-10-26T13:54:47;3.97;;;2.50;;
3099;SDS011;1560;52.746;13.474;2022-10-26T14:00:08;3.80;;;2.63;;
3099;SDS011;1560;52.746;13.474;2022-10-26T14:02:43;5.70;;;3.20;;
3099;SDS011;1560;52.746;13.474;2022-10-26T14:05:12;5.37;;;2.40;;
3099;SDS011;1560;52.746;13.474;2022-10-26T14:07:43;5.57;;;2.90;;
3099;SDS011;1560;52.746;13.474;2022-10-26T14:12:58;5.07;;;2.73;;
3099;SDS011;1560;52.746;13.474;2022-10-26T14:15:27;4.23;;;3.03;;
3099;SDS011;1560;52.746;13.474;2022-10-26T14:17:58;3.57;;;2.63;;
3099;SDS011;1560;52.746;13.474;2022-10-26T14:20:29;9.00;;;3.60;;
3099;SDS011;1560;52.746;13.474;2022-10-26T14:22:58;9.93;;;3.13;;
3099;SDS011;1560;52.746;13.474;2022-10-26T14:25:27;4.17;;;3.00;;
3099;SDS011;1560;52.746;13.474;2022-10-26T14:27:56;4.83;;;3.03;;
3099;SDS011;1560;52.746;13.474;2022-10-26T14:33:01;5.20;;;2.40;;
3099;SDS011;1560;52.746;13.474;2022-10-26T14:35:45;3.73;;;2.53;;
3099;SDS011;1560;52.746;13.474;2022-10-26T14:38:16;4.10;;;2.77;;
3099;SDS011;1560;52.746;13.474;2022-10-26T14:40:47;3.43;;;2.50;;
3099;SDS011;1560;52.746;13.474;2022-10-26T14:43:18;5.93;;;2.40;;
3099;SDS011;1560;52.746;13.474;2022-10-26T14:48:31;5.53;;;2.73;;
3099;SDS011;1560;52.746;13.474;2022-10-26T14:51:02;11.60;;;2.93;;
3099;SDS011;1560;52.746;13.474;2022-10-26T14:53:35;8.63;;;3.57;;
3099;SDS011;1560;52.746;13.474;2022-10-26T14:56:15;5.17;;;3.27;;
3099;SDS011;1560;52.746;13.474;2022-10-26T14:58:44;5.50;;;2.90;;
3099;SDS011;1560;52.746;13.474;2022-10-26T15:01:26;5.90;;;2.30;;
3099;SDS011;1560;52.746;13.474;2022-10-26T15:04:00;9.03;;;3.27;;
3099;SDS011;1560;52.746;13.474;2022-10-26T15:06:40;4.27;;;2.80;;
3099;SDS011;1560;52.746;13.474;2022-10-26T15:12:14;10.70;;;3.50;;
3099;SDS011;1560;52.746;13.474;2022-10-26T15:14:48;5.00;;;2.80;;
3099;SDS011;1560;52.746;13.474;2022-10-26T15:17:20;7.50;;;3.10;;
3099;SDS011;1560;52.746;13.474;2022-10-26T15:19:59;7.07;;;3.60;;
3099;SDS011;1560;52.746;13.474;2022-10-26T15:22:32;6.33;;;3.63;;
3099;SDS011;1560;52.746;13.474;2022-10-26T15:25:02;7.83;;;2.97;;
3099;SDS011;1560;52.746;13.474;2022-10-26T15:27:32;6.80;;;2.80;;
3099;SDS011;1560;52.746;13.474;2022-10-26T15:30:20;4.40;;;2.97;;
3099;SDS011;1560;52.746;13.474;2022-10-26T15:35:30;6.50;;;4.50;;
3099;SDS011;1560;52.746;13.474;2022-10-26T15:38:02;8.23;;;3.80;;
3099;SDS011;1560;52.746;13.474;2022-10-26T15:40:42;4.60;;;2.63;;
3099;SDS011;1560;52.746;13.474;2022-10-26T15:43:12;10.20;;;3.90;;
3099;SDS011;1560;52.746;13.474;2022-10-26T15:45:44;5.10;;;3.60;;
3099;SDS011;1560;52.746;13.474;2022-10-26T15:48:17;4.00;;;3.07;;
3099;SDS011;1560;52.746;13.474;2022-10-26T15:50:49;4.30;;;2.80;;
3099;SDS011;1560;52.746;13.474;2022-10-26T15:53:19;3.70;;;3.10;;
3099;SDS011;1560;52.746;13.474;2022-10-26T15:55:51;4.70;;;3.20;;
3099;SDS011;1560;52.746;13.474;2022-10-26T16:01:49;5.90;;;3.53;;
3099;SDS011;1560;52.746;13.474;2022-10-26T16:09:41;10.60;;;6.53;;
3099;SDS011;1560;52.746;13.474;2022-10-26T16:14:58;6.67;;;5.63;;
3099;SDS011;1560;52.746;13.474;2022-10-26T16:17:42;8.70;;;5.77;;
3099;SDS011;1560;52.746;13.474;2022-10-26T16:20:12;8.00;;;4.83;;
3099;SDS011;1560;52.746;13.474;2022-10-26T16:22:50;4.77;;;3.90;;
3099;SDS011;1560;52.746;13.474;2022-10-26T16:25:20;4.70;;;3.20;;
3099;SDS011;1560;52.746;13.474;2022-10-26T16:27:51;7.87;;;4.00;;
3099;SDS011;1560;52.746;13.474;2022-10-26T16:30:21;6.10;;;4.20;;
3099;SDS011;1560;52.746;13.474;2022-10-26T16:32:51;6.40;;;4.40;;
3099;SDS011;1560;52.746;13.474;2022-10-26T16:37:56;8.77;;;3.53;;
3099;SDS011;1560;52.746;13.474;2022-10-26T16:40:24;6.87;;;3.77;;
3099;SDS011;1560;52.746;13.474;2022-10-26T16:45:29;6.03;;;3.70;;
3099;SDS011;1560;52.746;13.474;2022-10-26T16:47:57;6.67;;;3.40;;
3099;SDS011;1560;52.746;13.474;2022-10-26T16:50:27;8.70;;;4.00;;
3099;SDS011;1560;52.746;13.474;2022-10-26T16:52:56;4.10;;;2.93;;
3099;SDS011;1560;52.746;13.474;2022-10-26T16:55:25;3.40;;;2.90;;
3099;SDS011;1560;52.746;13.474;2022-10-26T17:00:29;8.67;;;3.40;;
3099;SDS011;1560;52.746;13.474;2022-10-26T17:05:36;8.90;;;3.10;;
3099;SDS011;1560;52.746;13.474;2022-10-26T17:08:04;4.23;;;2.50;;
3099;SDS011;1560;52.746;13.474;2022-10-26T17:10:35;10.03;;;3.70;;
3099;SDS011;1560;52.746;13.474;2022-10-26T17:13:05;4.33;;;2.60;;
3099;SDS011;1560;52.746;13.474;2022-10-26T17:15:53;4.90;;;3.30;;
3099;SDS011;1560;52.746;13.474;2022-10-26T17:18:24;7.03;;;3.20;;
3099;SDS011;1560;52.746;13.474;2022-10-26T17:20:55;8.37;;;3.13;;
3099;SDS011;1560;52.746;13.474;2022-10-26T17:23:25;7.67;;;3.10;;
3099;SDS011;1560;52.746;13.474;2022-10-26T17:28:30;6.73;;;3.33;;
3099;SDS011;1560;52.746;13.474;2022-10-26T17:31:03;7.90;;;4.73;;
3099;SDS011;1560;52.746;13.474;2022-10-26T17:36:10;9.43;;;6.07;;
3099;SDS011;1560;52.746;13.474;2022-10-26T17:38:42;8.50;;;5.07;;
3099;SDS011;1560;52.746;13.474;2022-10-26T17:41:11;13.60;;;5.43;;
3099;SDS011;1560;52.746;13.474;2022-10-26T17:43:41;12.73;;;5.77;;
3099;SDS011;1560;52.746;13.474;2022-10-26T17:46:11;12.33;;;6.87;;
3099;SDS011;1560;52.746;13.474;2022-10-26T17:48:52;8.70;;;6.20;;
3099;SDS011;1560;52.746;13.474;2022-10-26T17:53:57;10.47;;;6.40;;
3099;SDS011;1560;52.746;13.474;2022-10-26T17:56:26;9.07;;;4.90;;
3099;SDS011;1560;52.746;13.474;2022-10-26T17:59:00;11.20;;;5.80;;
3099;SDS011;1560;52.746;13.474;2022-10-26T18:01:30;9.20;;;6.50;;
3099;SDS011;1560;52.746;13.474;2022-10-26T18:03:59;13.03;;;5.20;;
3099;SDS011;1560;52.746;13.474;2022-10-26T18:06:36;12.83;;;6.43;;
3099;SDS011;1560;52.746;13.474;2022-10-26T18:09:05;7.27;;;4.90;;
3099;SDS011;1560;52.746;13.474;2022-10-26T18:11:34;6.03;;;4.03;;
3099;SDS011;1560;52.746;13.474;2022-10-26T18:14:11;9.30;;;4.63;;